createdAt,value
2018-07-24T00:00:51.885Z,11.40
2018-07-24T00:03:20.891Z,11.53
2018-07-24T00:05:50.047Z,11.27
2018-07-24T00:08:19.271Z,11.57
2018-07-24T00:10:48.569Z,11.73
2018-07-24T00:13:17.730Z,13.37
2018-07-24T00:15:46.966Z,12.67
2018-07-24T00:18:16.233Z,12.43
2018-07-24T00:20:45.446Z,12.37
2018-07-24T00:23:14.629Z,12.43
2018-07-24T00:25:44.067Z,13.40
2018-07-24T00:28:13.498Z,12.03
2018-07-24T00:30:42.651Z,13.23
2018-07-24T00:33:11.959Z,12.90
2018-07-24T00:35:41.217Z,12.00
2018-07-24T00:38:10.291Z,12.60
2018-07-24T00:40:39.425Z,12.17
2018-07-24T00:43:09.150Z,12.97
2018-07-24T00:45:38.389Z,12.20
2018-07-24T00:48:07.515Z,13.17
2018-07-24T00:50:36.975Z,14.60
2018-07-24T00:53:06.181Z,14.53
2018-07-24T00:55:35.094Z,13.97
2018-07-24T00:58:04.315Z,14.03
2018-07-24T01:00:33.620Z,14.60
2018-07-24T01:03:02.864Z,14.50
2018-07-24T01:05:32.156Z,15.03
2018-07-24T01:08:01.258Z,15.90
2018-07-24T01:10:30.611Z,15.00
2018-07-24T01:12:59.934Z,16.30
2018-07-24T01:15:29.107Z,16.47
2018-07-24T01:17:58.231Z,15.97
2018-07-24T01:20:30.358Z,16.17
2018-07-24T01:23:00.142Z,16.17
2018-07-24T01:25:29.771Z,15.80
2018-07-24T01:27:59.390Z,17.33
2018-07-24T01:30:28.575Z,16.67
2018-07-24T01:32:57.761Z,16.90
2018-07-24T01:35:26.972Z,18.43
2018-07-24T01:37:56.287Z,20.33
2018-07-24T01:40:25.402Z,22.60
2018-07-24T01:42:54.668Z,23.07
2018-07-24T01:45:23.965Z,26.13
2018-07-24T01:47:53.407Z,27.30
2018-07-24T01:50:22.637Z,31.77
2018-07-24T01:52:51.802Z,33.50
2018-07-24T01:55:21.748Z,36.63
2018-07-24T01:57:50.964Z,37.17
2018-07-24T02:00:20.276Z,36.77
2018-07-24T02:02:49.487Z,35.83
2018-07-24T02:05:18.688Z,37.73
2018-07-24T02:07:47.851Z,35.30
2018-07-24T02:10:17.039Z,33.57
2018-07-24T02:12:46.370Z,32.93
2018-07-24T02:15:15.570Z,30.03
2018-07-24T02:17:44.700Z,27.67
2018-07-24T02:20:14.041Z,24.90
2018-07-24T02:22:43.624Z,23.53
2018-07-24T02:25:13.068Z,20.63
2018-07-24T02:27:42.275Z,20.63
2018-07-24T02:30:11.499Z,18.37
2018-07-24T02:32:40.682Z,17.67
2018-07-24T02:35:10.125Z,16.70
2018-07-24T02:37:39.285Z,15.80
2018-07-24T02:40:08.449Z,15.10
2018-07-24T02:42:37.691Z,15.30
2018-07-24T02:45:07.905Z,15.53
2018-07-24T02:47:37.108Z,16.30
2018-07-24T02:50:06.507Z,15.97
2018-07-24T02:52:35.890Z,16.13
2018-07-24T02:55:05.509Z,14.63
2018-07-24T02:57:34.769Z,14.93
2018-07-24T03:00:04.200Z,14.60
2018-07-24T03:02:33.040Z,14.60
2018-07-24T03:05:02.153Z,15.20
2018-07-24T03:07:31.517Z,14.20
2018-07-24T03:10:00.372Z,14.27
2018-07-24T03:12:29.665Z,14.43
2018-07-24T03:14:58.843Z,14.27
2018-07-24T03:17:28.096Z,15.23
2018-07-24T03:19:57.323Z,14.87
2018-07-24T03:22:26.485Z,14.27
2018-07-24T03:24:55.673Z,14.93
2018-07-24T03:27:24.854Z,14.87
2018-07-24T03:29:54.205Z,14.23
2018-07-24T03:32:23.391Z,14.37
2018-07-24T03:34:52.696Z,13.43
2018-07-24T03:37:21.463Z,14.30
2018-07-24T03:39:50.473Z,14.60
2018-07-24T03:42:19.656Z,15.23
2018-07-24T03:44:48.799Z,16.60
2018-07-24T03:47:18.040Z,19.37
2018-07-24T03:49:47.715Z,21.10
2018-07-24T03:52:17.010Z,22.83
2018-07-24T03:54:46.249Z,24.17
2018-07-24T03:57:15.492Z,27.83
2018-07-24T03:59:45.223Z,32.33
2018-07-24T04:02:14.858Z,36.00
2018-07-24T04:04:44.000Z,40.00
2018-07-24T04:07:13.612Z,39.90
2018-07-24T04:09:42.778Z,39.17
2018-07-24T04:12:12.171Z,37.80
2018-07-24T04:14:41.787Z,34.07
2018-07-24T04:17:10.998Z,31.17
2018-07-24T04:19:40.245Z,30.23
2018-07-24T04:22:09.453Z,28.27
2018-07-24T04:24:38.646Z,24.80
2018-07-24T04:27:08.631Z,20.60
2018-07-24T04:29:37.829Z,19.70
2018-07-24T04:32:07.145Z,18.70
2018-07-24T04:34:36.386Z,17.23
2018-07-24T04:37:05.852Z,17.00
2018-07-24T04:39:35.027Z,16.70
2018-07-24T04:42:04.243Z,16.53
2018-07-24T04:44:33.493Z,14.80
2018-07-24T04:47:02.691Z,14.47
2018-07-24T04:49:31.940Z,15.43
2018-07-24T04:52:01.228Z,15.10
2018-07-24T04:54:30.395Z,14.27
2018-07-24T04:56:59.609Z,14.40
2018-07-24T04:59:28.730Z,13.50
2018-07-24T05:01:57.856Z,13.87
2018-07-24T05:04:27.180Z,13.63
2018-07-24T05:06:56.308Z,13.37
2018-07-24T05:09:25.791Z,13.13
2018-07-24T05:11:54.924Z,13.73
2018-07-24T05:14:24.036Z,12.83
2018-07-24T05:16:53.238Z,13.90
2018-07-24T05:19:22.464Z,13.20
2018-07-24T05:21:51.623Z,12.10
2018-07-24T05:24:20.991Z,13.07
2018-07-24T05:26:50.245Z,12.80
2018-07-24T05:29:19.555Z,12.53
2018-07-24T05:31:48.728Z,13.10
2018-07-24T05:34:17.881Z,13.37
2018-07-24T05:36:47.132Z,13.07
2018-07-24T05:39:16.316Z,13.57
2018-07-24T05:41:45.495Z,13.57
2018-07-24T05:44:14.694Z,12.80
2018-07-24T05:46:44.044Z,13.27
2018-07-24T05:49:13.208Z,13.57
2018-07-24T05:51:42.132Z,12.83
2018-07-24T05:54:11.356Z,13.03
2018-07-24T05:56:40.627Z,13.73
2018-07-24T05:59:09.785Z,13.67
2018-07-24T06:01:38.900Z,12.40
2018-07-24T06:04:08.164Z,11.60
2018-07-24T06:06:37.404Z,11.93
2018-07-24T06:09:08.623Z,12.20
2018-07-24T06:11:37.940Z,11.60
2018-07-24T06:14:07.251Z,12.37
2018-07-24T06:16:36.428Z,11.83
2018-07-24T06:19:05.789Z,12.07
2018-07-24T06:21:35.181Z,12.15
2018-07-24T06:24:04.418Z,11.55
2018-07-24T06:26:33.649Z,12.45
2018-07-24T06:29:02.786Z,11.40
2018-07-24T06:31:31.980Z,11.80
2018-07-24T06:34:01.164Z,12.20
2018-07-24T06:36:30.660Z,12.03
2018-07-24T06:38:59.774Z,11.28
2018-07-24T06:41:28.898Z,11.88
2018-07-24T06:43:58.140Z,11.22
2018-07-24T06:46:27.337Z,11.90
2018-07-24T06:48:56.507Z,10.85
2018-07-24T06:51:25.774Z,10.95
2018-07-24T06:53:54.944Z,11.12
2018-07-24T06:56:24.280Z,11.22
2018-07-24T06:58:53.549Z,10.90
2018-07-24T07:01:22.527Z,10.93
2018-07-24T07:03:52.426Z,11.15
2018-07-24T07:06:21.743Z,10.53
2018-07-24T07:08:51.200Z,9.08
2018-07-24T07:11:20.457Z,9.25
2018-07-24T07:13:49.354Z,9.15
2018-07-24T07:16:18.486Z,9.53
2018-07-24T07:18:47.837Z,9.63
2018-07-24T07:21:16.962Z,9.33
2018-07-24T07:23:46.199Z,9.85
2018-07-24T07:26:15.489Z,9.08
2018-07-24T07:28:44.251Z,9.03
2018-07-24T07:31:13.280Z,9.28
2018-07-24T07:33:42.673Z,9.65
2018-07-24T07:36:11.998Z,9.00
2018-07-24T07:38:41.130Z,8.35
2018-07-24T07:41:10.466Z,8.73
2018-07-24T07:43:39.623Z,7.47
2018-07-24T07:46:08.697Z,8.10
2018-07-24T07:48:37.822Z,7.72
2018-07-24T07:51:07.143Z,7.58
2018-07-24T07:53:36.305Z,7.85
2018-07-24T07:56:05.847Z,8.10
2018-07-24T07:58:34.980Z,8.45
2018-07-24T08:01:04.374Z,6.85
2018-07-24T08:03:33.503Z,7.58
2018-07-24T08:06:02.834Z,6.50
2018-07-24T08:08:32.111Z,6.28
2018-07-24T08:11:01.219Z,7.08
2018-07-24T08:13:30.399Z,5.75
2018-07-24T08:15:59.542Z,6.72
2018-07-24T08:18:28.817Z,6.80
2018-07-24T08:20:57.997Z,5.92
2018-07-24T08:23:27.294Z,5.70
2018-07-24T08:25:56.492Z,4.55
2018-07-24T08:28:25.851Z,4.90
2018-07-24T08:30:54.932Z,5.33
2018-07-24T08:33:24.241Z,4.95
2018-07-24T08:35:53.386Z,4.65
2018-07-24T08:38:22.727Z,3.83
2018-07-24T08:40:51.912Z,3.98
2018-07-24T08:43:21.226Z,4.42
2018-07-24T08:45:50.485Z,3.72
2018-07-24T08:48:19.649Z,2.55
2018-07-24T08:50:48.801Z,4.15
2018-07-24T08:53:18.332Z,3.35
2018-07-24T08:55:47.684Z,3.40
2018-07-24T08:58:16.644Z,3.15
2018-07-24T09:00:45.897Z,2.98
2018-07-24T09:03:15.017Z,2.85
2018-07-24T09:05:44.342Z,3.40
2018-07-24T09:08:13.671Z,3.02
2018-07-24T09:10:42.839Z,3.52
2018-07-24T09:13:12.148Z,3.50
2018-07-24T09:15:41.305Z,3.30
2018-07-24T09:18:10.447Z,4.60
2018-07-24T09:20:39.699Z,3.27
2018-07-24T09:23:08.946Z,4.53
2018-07-24T09:25:38.314Z,2.70
2018-07-24T09:28:07.704Z,2.80
2018-07-24T09:30:36.925Z,3.25
2018-07-24T09:33:06.148Z,2.37
2018-07-24T09:35:35.399Z,2.75
2018-07-24T09:38:04.573Z,2.55
2018-07-24T09:40:33.880Z,2.50
2018-07-24T09:43:02.916Z,3.17
2018-07-24T09:45:32.323Z,3.15
2018-07-24T09:48:01.487Z,2.65
2018-07-24T09:50:30.803Z,2.87
2018-07-24T09:52:59.961Z,2.77
2018-07-24T09:55:29.118Z,2.30
2018-07-24T09:57:58.429Z,2.37
2018-07-24T10:00:32.919Z,2.40
2018-07-24T10:03:02.452Z,2.20
2018-07-24T10:05:31.616Z,2.58
2018-07-24T10:08:00.720Z,3.02
2018-07-24T10:10:30.021Z,2.40
2018-07-24T10:12:59.352Z,2.15
2018-07-24T10:15:28.449Z,2.22
2018-07-24T10:17:57.743Z,2.20
2018-07-24T10:20:26.841Z,2.10
2018-07-24T10:22:55.894Z,1.92
2018-07-24T10:25:25.053Z,2.52
2018-07-24T10:27:54.305Z,2.50
2018-07-24T10:30:23.572Z,2.50
2018-07-24T10:32:52.683Z,2.10
2018-07-24T10:35:21.920Z,3.08
2018-07-24T10:37:51.132Z,2.20
2018-07-24T10:40:20.327Z,2.60
2018-07-24T10:42:49.508Z,2.30
2018-07-24T10:45:18.676Z,2.20
2018-07-24T10:47:48.039Z,2.20
2018-07-24T10:50:17.152Z,2.37
2018-07-24T10:52:46.388Z,2.47
2018-07-24T10:55:15.156Z,2.45
2018-07-24T10:57:44.397Z,2.50
2018-07-24T11:00:13.894Z,2.47
2018-07-24T11:02:43.197Z,2.60
2018-07-24T11:05:12.533Z,2.22
2018-07-24T11:07:41.816Z,2.30
2018-07-24T11:10:11.105Z,2.50
2018-07-24T11:12:40.288Z,2.22
2018-07-24T11:15:09.509Z,2.40
2018-07-24T11:17:38.747Z,2.27
2018-07-24T11:20:07.974Z,2.20
2018-07-24T11:22:37.364Z,3.65
2018-07-24T11:25:07.023Z,2.98
2018-07-24T11:27:36.337Z,2.33
2018-07-24T11:30:06.403Z,2.33
2018-07-24T11:32:35.712Z,2.90
2018-07-24T11:35:05.569Z,3.72
2018-07-24T11:37:34.854Z,2.35
2018-07-24T11:40:03.671Z,3.00
2018-07-24T11:42:32.958Z,2.67
2018-07-24T11:45:02.122Z,2.08
2018-07-24T11:47:31.343Z,2.00
2018-07-24T11:50:00.633Z,2.50
2018-07-24T11:52:30.269Z,2.22
2018-07-24T11:55:00.208Z,2.02
2018-07-24T11:57:29.328Z,2.37
2018-07-24T11:59:58.655Z,2.42
2018-07-24T12:02:27.753Z,2.70
2018-07-24T12:04:57.119Z,3.50
2018-07-24T12:07:26.466Z,3.50
2018-07-24T12:09:55.747Z,3.10
2018-07-24T12:12:24.624Z,3.58
2018-07-24T12:14:53.923Z,3.50
2018-07-24T12:17:23.005Z,3.47
2018-07-24T12:19:52.473Z,3.65
2018-07-24T12:22:22.256Z,3.30
2018-07-24T12:24:51.568Z,3.40
2018-07-24T12:27:20.840Z,2.83
2018-07-24T12:29:50.028Z,3.40
2018-07-24T12:32:19.562Z,3.27
2018-07-24T12:34:48.826Z,3.00
2018-07-24T12:37:18.041Z,3.00
2018-07-24T12:39:47.345Z,3.50
2018-07-24T12:42:16.708Z,3.08
2018-07-24T12:44:45.920Z,3.30
2018-07-24T12:47:15.225Z,3.37
2018-07-24T12:49:45.600Z,3.10
2018-07-24T12:52:14.391Z,3.60
2018-07-24T12:54:43.566Z,3.02
2018-07-24T12:57:13.117Z,3.00
2018-07-24T12:59:42.269Z,3.52
2018-07-24T13:02:11.531Z,3.37
2018-07-24T13:04:40.705Z,3.52
2018-07-24T13:07:09.913Z,3.12
2018-07-24T13:09:39.261Z,3.33
2018-07-24T13:12:08.918Z,3.10
2018-07-24T13:14:38.188Z,3.00
2018-07-24T13:17:07.412Z,3.42
2018-07-24T13:19:36.686Z,3.10
2018-07-24T13:22:06.015Z,3.00
2018-07-24T13:24:35.349Z,3.42
2018-07-24T13:27:04.506Z,3.08
2018-07-24T13:29:33.919Z,3.40
2018-07-24T13:32:03.154Z,3.25
2018-07-24T13:34:32.429Z,4.35
2018-07-24T13:37:01.922Z,3.80
2018-07-24T13:39:31.059Z,3.10
2018-07-24T13:42:00.283Z,3.12
2018-07-24T13:44:30.308Z,3.50
2018-07-24T13:46:59.599Z,4.10
2018-07-24T13:49:28.798Z,3.65
2018-07-24T13:51:58.024Z,3.83
2018-07-24T13:54:27.215Z,3.50
2018-07-24T13:56:56.032Z,3.67
2018-07-24T13:59:25.097Z,3.20
2018-07-24T14:01:54.294Z,3.52
2018-07-24T14:04:23.387Z,3.22
2018-07-24T14:06:52.509Z,2.80
2018-07-24T14:09:21.632Z,4.55
2018-07-24T14:11:50.915Z,3.25
2018-07-24T14:14:20.276Z,3.27
2018-07-24T14:16:49.472Z,3.00
2018-07-24T14:19:18.792Z,2.62
2018-07-24T14:21:48.028Z,3.08
2018-07-24T14:24:17.293Z,2.87
2018-07-24T14:26:46.504Z,3.83
2018-07-24T14:29:15.709Z,3.05
2018-07-24T14:31:44.967Z,3.08
2018-07-24T14:34:14.797Z,3.30
2018-07-24T14:36:43.918Z,3.20
2018-07-24T14:39:14.055Z,3.10
2018-07-24T14:41:43.226Z,3.95
2018-07-24T14:44:12.319Z,3.15
2018-07-24T14:46:41.443Z,2.90
2018-07-24T14:49:10.816Z,2.90
2018-07-24T14:51:39.617Z,3.20
2018-07-24T14:54:08.633Z,2.80
2018-07-24T14:56:37.803Z,2.95
2018-07-24T14:59:07.106Z,3.50
2018-07-24T15:01:36.330Z,3.70
2018-07-24T15:04:05.818Z,4.65
2018-07-24T15:06:35.030Z,3.47
2018-07-24T15:09:06.133Z,3.12
2018-07-24T15:11:35.446Z,3.08
2018-07-24T15:14:04.927Z,3.45
2018-07-24T15:16:33.746Z,3.95
2018-07-24T15:19:02.976Z,2.80
2018-07-24T15:21:32.973Z,3.40
2018-07-24T15:24:02.103Z,3.15
2018-07-24T15:26:31.327Z,3.30
2018-07-24T15:29:00.638Z,3.30
2018-07-24T15:31:29.845Z,3.77
2018-07-24T15:33:59.048Z,3.05
2018-07-24T15:36:28.181Z,3.17
2018-07-24T15:38:57.448Z,3.52
2018-07-24T15:41:27.319Z,3.58
2018-07-24T15:43:56.575Z,4.42
2018-07-24T15:46:25.709Z,3.12
2018-07-24T15:48:54.803Z,3.60
2018-07-24T15:51:23.965Z,3.70
2018-07-24T15:53:53.159Z,5.25
2018-07-24T15:56:22.452Z,3.55
2018-07-24T15:58:51.841Z,3.60
2018-07-24T16:01:20.940Z,3.92
2018-07-24T16:03:50.173Z,3.77
2018-07-24T16:06:19.357Z,4.12
2018-07-24T16:08:48.588Z,4.50
2018-07-24T16:11:17.958Z,4.12
2018-07-24T16:13:46.899Z,4.17
2018-07-24T16:16:15.957Z,4.08
2018-07-24T16:18:45.115Z,4.22
2018-07-24T16:21:21.106Z,4.22
2018-07-24T16:23:50.241Z,4.30
2018-07-24T16:26:19.455Z,4.20
2018-07-24T16:28:48.700Z,6.40
2018-07-24T16:31:18.119Z,5.03
2018-07-24T16:33:47.241Z,4.97
2018-07-24T16:36:16.395Z,4.80
2018-07-24T16:38:45.617Z,5.90
2018-07-24T16:41:14.792Z,7.28
2018-07-24T16:43:44.169Z,5.30
2018-07-24T16:46:13.411Z,4.90
2018-07-24T16:48:42.603Z,5.83
2018-07-24T16:51:11.817Z,5.10
2018-07-24T16:53:41.092Z,6.00
2018-07-24T16:56:10.210Z,5.63
2018-07-24T16:58:39.520Z,5.10
2018-07-24T17:01:08.921Z,5.47
2018-07-24T17:03:38.124Z,4.60
2018-07-24T17:06:07.641Z,7.30
2018-07-24T17:08:36.797Z,4.50
2018-07-24T17:11:06.117Z,4.57
2018-07-24T17:13:35.032Z,4.90
2018-07-24T17:16:04.063Z,4.53
2018-07-24T17:18:33.497Z,5.10
2018-07-24T17:21:02.702Z,5.00
2018-07-24T17:23:31.738Z,4.70
2018-07-24T17:26:00.873Z,4.60
2018-07-24T17:28:30.096Z,4.20
2018-07-24T17:30:59.291Z,4.60
2018-07-24T17:33:28.454Z,4.13
2018-07-24T17:35:57.692Z,4.50
2018-07-24T17:38:26.812Z,4.57
2018-07-24T17:40:56.020Z,4.87
2018-07-24T17:43:25.136Z,4.67
2018-07-24T17:45:54.262Z,4.77
2018-07-24T17:48:23.435Z,4.37
2018-07-24T17:50:52.833Z,4.57
2018-07-24T17:53:21.992Z,4.77
2018-07-24T17:55:51.207Z,4.23
2018-07-24T17:58:20.311Z,4.30
2018-07-24T18:00:49.524Z,4.20
2018-07-24T18:03:18.911Z,4.33
2018-07-24T18:05:48.144Z,4.60
2018-07-24T18:08:17.376Z,4.63
2018-07-24T18:10:46.576Z,5.00
2018-07-24T18:13:15.752Z,5.23
2018-07-24T18:15:45.104Z,5.10
2018-07-24T18:18:14.618Z,4.83
2018-07-24T18:20:43.773Z,4.70
2018-07-24T18:23:12.996Z,5.03
2018-07-24T18:25:42.151Z,5.20
2018-07-24T18:28:11.277Z,5.37
2018-07-24T18:30:40.699Z,4.90
2018-07-24T18:33:09.684Z,5.27
2018-07-24T18:35:38.803Z,5.13
2018-07-24T18:38:07.913Z,5.80
2018-07-24T18:40:37.552Z,5.30
2018-07-24T18:43:06.814Z,5.67
2018-07-24T18:45:35.987Z,5.43
2018-07-24T18:48:05.455Z,7.13
2018-07-24T18:50:35.438Z,5.83
2018-07-24T18:53:04.599Z,7.17
2018-07-24T18:55:33.785Z,6.83
2018-07-24T18:58:03.004Z,6.47
2018-07-24T19:00:33.299Z,6.93
2018-07-24T19:03:02.533Z,7.47
2018-07-24T19:05:31.900Z,7.90
2018-07-24T19:08:01.014Z,7.20
2018-07-24T19:10:30.161Z,8.07
2018-07-24T19:12:59.488Z,7.00
2018-07-24T19:15:28.645Z,7.77
2018-07-24T19:17:57.900Z,6.57
2018-07-24T19:20:27.177Z,8.50
2018-07-24T19:22:56.452Z,8.00
2018-07-24T19:25:25.581Z,7.50
2018-07-24T19:27:56.138Z,8.00
2018-07-24T19:30:25.575Z,7.57
2018-07-24T19:32:54.826Z,7.30
2018-07-24T19:35:24.050Z,7.50
2018-07-24T19:37:53.541Z,23.67
2018-07-24T19:40:22.855Z,9.67
2018-07-24T19:42:52.323Z,9.70
2018-07-24T19:45:21.557Z,9.30
2018-07-24T19:47:50.709Z,9.63
2018-07-24T19:50:19.910Z,9.67
2018-07-24T19:52:49.122Z,11.07
2018-07-24T19:55:18.269Z,11.20
2018-07-24T19:57:47.563Z,11.90
2018-07-24T20:00:16.840Z,13.90
2018-07-24T20:02:46.131Z,15.00
2018-07-24T20:05:15.348Z,15.27
2018-07-24T20:07:45.444Z,16.20
2018-07-24T20:10:14.774Z,15.33
2018-07-24T20:12:44.831Z,15.47
2018-07-24T20:15:16.856Z,16.23
2018-07-24T20:17:46.127Z,13.90
2018-07-24T20:20:15.972Z,12.50
2018-07-24T20:22:45.505Z,12.07
2018-07-24T20:25:14.633Z,10.97
2018-07-24T20:27:43.942Z,10.27
2018-07-24T20:30:13.159Z,10.00
2018-07-24T20:32:42.316Z,9.20
2018-07-24T20:35:11.703Z,9.10
2018-07-24T20:37:40.873Z,9.77
2018-07-24T20:40:10.056Z,8.83
2018-07-24T20:42:39.376Z,9.87
2018-07-24T20:45:08.476Z,8.47
2018-07-24T20:47:37.587Z,9.30
2018-07-24T20:50:06.915Z,8.43
2018-07-24T20:52:36.149Z,9.27
2018-07-24T20:55:05.498Z,8.87
2018-07-24T20:57:34.751Z,10.00
2018-07-24T21:00:04.008Z,11.70
2018-07-24T21:02:33.144Z,12.30
2018-07-24T21:05:02.295Z,12.07
2018-07-24T21:07:31.641Z,12.93
2018-07-24T21:10:01.999Z,13.50
2018-07-24T21:12:31.185Z,14.33
2018-07-24T21:15:00.373Z,13.93
2018-07-24T21:17:29.572Z,14.30
2018-07-24T21:19:58.770Z,16.63
2018-07-24T21:22:27.958Z,16.80
2018-07-24T21:24:57.168Z,19.23
2018-07-24T21:27:26.401Z,19.67
2018-07-24T21:29:55.536Z,23.57
2018-07-24T21:32:24.703Z,23.37
2018-07-24T21:34:54.073Z,23.23
2018-07-24T21:37:23.211Z,23.43
2018-07-24T21:39:52.407Z,26.00
2018-07-24T21:42:21.590Z,23.37
2018-07-24T21:44:50.767Z,24.40
2018-07-24T21:47:20.026Z,25.73
2018-07-24T21:49:49.205Z,26.17
2018-07-24T21:52:18.514Z,23.87
2018-07-24T21:54:47.793Z,26.03
2018-07-24T21:57:16.942Z,23.70
2018-07-24T21:59:45.870Z,25.07
2018-07-24T22:02:14.971Z,25.33
2018-07-24T22:04:44.210Z,24.93
2018-07-24T22:07:13.546Z,24.93
2018-07-24T22:09:42.735Z,22.87
2018-07-24T22:12:11.986Z,23.57
2018-07-24T22:14:41.220Z,23.53
2018-07-24T22:17:10.559Z,22.63
2018-07-24T22:19:40.464Z,27.13
2018-07-24T22:22:09.699Z,28.10
2018-07-24T22:24:39.038Z,27.87
2018-07-24T22:27:08.364Z,28.53
2018-07-24T22:29:37.866Z,27.47
2018-07-24T22:32:07.055Z,27.20
2018-07-24T22:34:36.236Z,27.23
2018-07-24T22:37:05.488Z,28.23
2018-07-24T22:39:34.650Z,27.87
2018-07-24T22:42:03.883Z,29.77
2018-07-24T22:44:33.155Z,29.60
2018-07-24T22:47:02.356Z,29.17
2018-07-24T22:49:31.549Z,28.87
2018-07-24T22:52:00.737Z,29.37
2018-07-24T22:54:30.042Z,31.30
2018-07-24T22:56:59.356Z,30.90
2018-07-24T22:59:28.860Z,30.07
2018-07-24T23:01:58.059Z,32.53
2018-07-24T23:04:27.448Z,33.80
2018-07-24T23:06:56.665Z,35.67
2018-07-24T23:09:25.973Z,31.47
2018-07-24T23:11:55.832Z,30.23
2018-07-24T23:14:24.969Z,29.27
2018-07-24T23:16:54.316Z,25.23
2018-07-24T23:19:23.713Z,22.27
2018-07-24T23:21:53.092Z,20.63
2018-07-24T23:24:22.298Z,19.83
2018-07-24T23:26:51.096Z,20.83
2018-07-24T23:29:20.190Z,21.47
2018-07-24T23:31:49.333Z,21.53
2018-07-24T23:34:18.580Z,22.57
2018-07-24T23:36:47.775Z,21.57
2018-07-24T23:39:16.885Z,22.27
2018-07-24T23:41:46.166Z,20.30
2018-07-24T23:44:15.306Z,20.77
2018-07-24T23:46:44.681Z,20.77
2018-07-24T23:49:13.942Z,20.50
2018-07-24T23:51:43.140Z,20.77
2018-07-24T23:54:12.556Z,22.03
2018-07-24T23:56:41.781Z,20.17
2018-07-24T23:59:11.189Z,20.67
